Time;durP1;ratioP1;P1;durP2;ratioP2;P2;SDS_P1;SDS_P2;PMS_P1;PMS_P2;Temp;Humidity;BMP_temperature;BMP_pressure;BME280_temperature;BME280_humidity;BME280_pressure;Samples;Min_cycle;Max_cycle;Signal;HPM_P1;HPM_P2
2023/03/10 00:00:04;;;;;;;29.67;19.53;;;1.60;99.90;;;;;;4962076;28;20226;-81
2023/03/10 00:02:33;;;;;;;27.13;19.03;;;1.60;99.90;;;;;;4962871;28;20308;-80
2023/03/10 00:05:02;;;;;;;30.20;20.07;;;1.60;99.90;;;;;;4962013;28;20222;-80
2023/03/10 00:07:29;;;;;;;27.47;19.60;;;1.60;99.90;;;;;;4960058;28;20232;-81
2023/03/10 00:09:55;;;;;;;27.60;19.40;;;1.70;99.90;;;;;;4961279;28;20714;-81
2023/03/10 00:12:24;;;;;;;30.40;19.57;;;1.60;99.90;;;;;;4961250;28;20926;-82
2023/03/10 00:14:52;;;;;;;29.23;20.87;;;1.60;99.90;;;;;;4962153;28;20222;-82
2023/03/10 00:17:19;;;;;;;32.63;19.10;;;1.60;99.90;;;;;;4961242;28;20219;-82
2023/03/10 00:19:46;;;;;;;32.30;19.33;;;1.60;99.90;;;;;;4962488;28;20234;-79
2023/03/10 00:22:12;;;;;;;27.30;19.30;;;1.60;99.90;;;;;;4960229;28;20224;-80
2023/03/10 00:24:39;;;;;;;26.37;18.10;;;1.60;99.90;;;;;;4961310;28;20227;-80
2023/03/10 00:27:06;;;;;;;26.87;18.70;;;1.60;99.90;;;;;;4962625;28;20243;-82
2023/03/10 00:29:33;;;;;;;28.20;19.27;;;1.60;99.90;;;;;;4963426;28;20778;-80
2023/03/10 00:32:03;;;;;;;27.20;18.67;;;1.50;99.90;;;;;;4965180;28;20224;-79
2023/03/10 00:34:31;;;;;;;31.57;19.03;;;1.50;99.90;;;;;;4979257;28;20229;-80
2023/03/10 00:36:58;;;;;;;27.30;18.23;;;1.50;99.90;;;;;;4965782;28;20230;-80
2023/03/10 00:39:25;;;;;;;28.43;17.70;;;1.50;99.90;;;;;;4964056;28;20234;-81
2023/03/10 00:41:52;;;;;;;27.63;17.83;;;1.50;99.90;;;;;;4978160;28;20974;-80
2023/03/10 00:44:18;;;;;;;31.97;18.23;;;1.40;99.90;;;;;;4966839;28;20687;-80
2023/03/10 00:46:45;;;;;;;27.53;18.47;;;1.40;99.90;;;;;;4965795;28;20221;-81
2023/03/10 00:49:16;;;;;;;28.13;19.03;;;1.40;99.90;;;;;;4968410;28;20808;-80
2023/03/10 00:51:43;;;;;;;27.17;18.77;;;1.40;99.90;;;;;;4978817;28;20242;-80
2023/03/10 00:54:10;;;;;;;29.20;18.47;;;1.30;99.90;;;;;;4984438;28;20312;-82
2023/03/10 00:56:36;;;;;;;29.80;19.57;;;1.30;99.90;;;;;;4969123;28;20254;-80
2023/03/10 00:59:03;;;;;;;27.17;19.03;;;1.30;99.90;;;;;;4966402;28;20626;-79
2023/03/10 01:01:32;;;;;;;29.93;19.10;;;1.30;99.90;;;;;;4959301;28;20279;-81
2023/03/10 01:04:01;;;;;;;30.67;19.97;;;1.20;99.90;;;;;;4964389;28;20339;-83
2023/03/10 01:06:29;;;;;;;34.67;20.70;;;1.20;99.90;;;;;;4973169;28;20314;-79
2023/03/10 01:08:56;;;;;;;30.97;20.30;;;1.20;99.90;;;;;;4979415;28;20248;-80
2023/03/10 01:11:25;;;;;;;32.17;20.80;;;1.20;99.90;;;;;;4964959;28;20230;-79
2023/03/10 01:13:53;;;;;;;31.73;20.27;;;1.20;99.90;;;;;;4961896;28;20225;-80
2023/03/10 01:16:20;;;;;;;32.33;20.47;;;1.10;99.90;;;;;;4964547;28;20313;-82
2023/03/10 01:18:46;;;;;;;30.87;19.83;;;1.10;99.90;;;;;;4962808;28;20231;-80
2023/03/10 01:21:16;;;;;;;30.70;20.47;;;1.10;99.90;;;;;;4961805;28;20239;-81
2023/03/10 01:23:45;;;;;;;28.40;19.43;;;1.00;99.90;;;;;;4954721;28;20231;-80
2023/03/10 01:26:12;;;;;;;30.77;20.17;;;1.00;99.90;;;;;;4977677;28;20277;-80
2023/03/10 01:28:39;;;;;;;29.47;19.50;;;0.90;99.90;;;;;;4977705;28;20309;-81
2023/03/10 01:31:07;;;;;;;30.77;19.63;;;0.90;99.90;;;;;;4965084;28;20274;-81
2023/03/10 01:33:34;;;;;;;31.10;19.43;;;0.90;99.90;;;;;;4982416;28;20266;-81
2023/03/10 01:36:06;;;;;;;33.47;20.07;;;0.90;99.90;;;;;;4967777;28;20258;-83
2023/03/10 01:38:33;;;;;;;29.47;19.23;;;0.80;99.90;;;;;;4968152;28;20243;-81
2023/03/10 01:41:02;;;;;;;27.27;18.07;;;0.80;99.90;;;;;;4966716;28;20246;-81
2023/03/10 01:43:34;;;;;;;26.13;17.97;;;0.80;99.90;;;;;;4963744;28;20596;-79
2023/03/10 01:46:49;;;;;;;28.30;17.87;;;0.80;99.90;;;;;;4964349;28;20233;-81
2023/03/10 01:49:29;;;;;;;28.27;17.53;;;0.80;99.90;;;;;;4964860;28;20227;-80
2023/03/10 01:52:00;;;;;;;27.10;17.87;;;0.80;99.90;;;;;;4961994;28;20249;-79
2023/03/10 01:54:33;;;;;;;25.90;18.43;;;0.70;99.90;;;;;;4975136;28;20829;-79
2023/03/10 01:57:02;;;;;;;29.50;18.70;;;0.80;99.90;;;;;;4979583;28;20217;-82
2023/03/10 01:59:29;;;;;;;28.30;18.03;;;0.80;99.90;;;;;;4958635;28;20613;-81
2023/03/10 02:01:58;;;;;;;29.47;17.57;;;0.80;99.90;;;;;;4978703;28;20281;-81
2023/03/10 02:04:33;;;;;;;26.03;17.93;;;0.80;99.90;;;;;;4964118;28;21006;-81
2023/03/10 02:07:01;;;;;;;27.23;18.23;;;0.80;99.90;;;;;;4960227;28;20220;-82
2023/03/10 02:09:28;;;;;;;28.27;18.27;;;0.80;99.90;;;;;;4977079;28;21128;-82
2023/03/10 02:11:58;;;;;;;28.27;18.77;;;0.80;99.90;;;;;;4959034;28;20240;-80
2023/03/10 02:14:26;;;;;;;26.93;17.57;;;0.80;99.90;;;;;;4977684;28;20265;-80
2023/03/10 02:16:53;;;;;;;26.30;18.23;;;0.90;99.90;;;;;;4972447;28;20233;-81
2023/03/10 02:19:35;;;;;;;26.33;18.33;;;0.80;99.90;;;;;;4962653;28;20233;-80
2023/03/10 02:22:06;;;;;;;26.67;17.83;;;0.80;99.90;;;;;;4977770;28;20696;-81
2023/03/10 02:24:41;;;;;;;26.87;18.60;;;0.80;99.90;;;;;;4961167;28;20235;-82
2023/03/10 02:27:21;;;;;;;26.60;18.47;;;0.80;99.90;;;;;;4964912;28;20249;-80
2023/03/10 02:29:52;;;;;;;26.70;18.53;;;0.80;99.90;;;;;;4977550;28;20224;-80
2023/03/10 02:32:20;;;;;;;26.77;17.77;;;0.80;99.90;;;;;;4973431;28;20763;-80
2023/03/10 02:34:47;;;;;;;25.97;17.67;;;0.80;99.90;;;;;;4982039;28;20237;-80
2023/03/10 02:37:22;;;;;;;25.93;17.73;;;0.70;99.90;;;;;;4979380;28;20213;-81
2023/03/10 02:39:48;;;;;;;26.63;17.70;;;0.70;99.90;;;;;;4977878;28;20226;-81
2023/03/10 02:42:15;;;;;;;30.47;19.10;;;0.60;99.90;;;;;;4962880;28;20931;-80
2023/03/10 02:44:45;;;;;;;27.97;18.13;;;0.70;99.90;;;;;;4977008;28;20229;-80
2023/03/10 02:47:12;;;;;;;24.67;16.70;;;0.60;99.90;;;;;;4959923;28;20218;-79
2023/03/10 02:49:40;;;;;;;30.70;18.00;;;0.60;99.90;;;;;;4959575;28;20311;-83
2023/03/10 02:52:12;;;;;;;25.97;17.27;;;0.60;99.90;;;;;;4981850;28;20224;-80
2023/03/10 02:54:38;;;;;;;24.60;17.37;;;0.60;99.90;;;;;;4961025;28;20244;-79
2023/03/10 02:57:05;;;;;;;23.70;16.60;;;0.60;99.90;;;;;;4958399;28;20642;-80
2023/03/10 02:59:32;;;;;;;23.40;16.50;;;0.50;99.90;;;;;;4964382;28;20501;-80
2023/03/10 03:02:01;;;;;;;27.13;17.47;;;0.50;99.90;;;;;;4962401;28;20589;-79
2023/03/10 03:04:28;;;;;;;38.17;17.00;;;0.50;99.90;;;;;;4958222;28;20230;-79
2023/03/10 03:06:55;;;;;;;25.87;17.23;;;0.50;99.90;;;;;;4960362;28;20252;-82
2023/03/10 03:09:22;;;;;;;34.80;18.03;;;0.50;99.90;;;;;;4976399;28;20238;-81
2023/03/10 03:11:48;;;;;;;27.67;17.53;;;0.50;99.90;;;;;;4966161;28;20231;-80
2023/03/10 03:14:16;;;;;;;22.57;16.07;;;0.50;99.90;;;;;;4959659;28;20244;-80
2023/03/10 03:16:43;;;;;;;24.57;16.87;;;0.50;99.90;;;;;;4976600;28;20231;-81
2023/03/10 03:19:12;;;;;;;24.03;16.37;;;0.60;99.90;;;;;;4978270;28;20225;-81
2023/03/10 03:21:39;;;;;;;25.47;17.30;;;0.60;99.90;;;;;;4971470;28;20231;-80
2023/03/10 03:24:06;;;;;;;23.70;16.77;;;0.60;99.90;;;;;;4955852;28;20225;-80
2023/03/10 03:26:33;;;;;;;24.73;17.13;;;0.70;99.90;;;;;;4958997;28;20234;-79
2023/03/10 03:29:11;;;;;;;22.67;16.10;;;0.60;99.90;;;;;;4961718;28;20262;-80
2023/03/10 03:31:38;;;;;;;25.40;17.47;;;0.60;99.90;;;;;;4977225;28;20220;-81
2023/03/10 03:34:10;;;;;;;26.90;17.20;;;0.60;99.90;;;;;;4965360;28;20226;-80
2023/03/10 03:36:39;;;;;;;26.23;17.57;;;0.60;99.90;;;;;;4960044;28;20234;-80
2023/03/10 03:39:07;;;;;;;23.43;16.47;;;0.60;99.90;;;;;;4975089;28;20227;-81
2023/03/10 03:41:36;;;;;;;22.43;15.97;;;0.60;99.90;;;;;;4981045;28;20302;-82
2023/03/10 03:44:04;;;;;;;22.70;16.17;;;0.60;99.90;;;;;;4965297;28;20248;-81
2023/03/10 03:46:33;;;;;;;22.30;15.77;;;0.60;99.90;;;;;;4963527;28;20247;-80
2023/03/10 03:49:00;;;;;;;24.23;17.03;;;0.60;99.90;;;;;;4965970;28;20287;-81
2023/03/10 03:51:28;;;;;;;22.73;15.73;;;0.50;99.90;;;;;;4967792;28;20721;-80
2023/03/10 03:53:56;;;;;;;24.53;15.60;;;0.50;99.90;;;;;;4977265;28;20310;-79
2023/03/10 03:56:23;;;;;;;25.40;16.50;;;0.40;99.90;;;;;;4971529;28;20286;-80
2023/03/10 03:58:50;;;;;;;24.17;16.13;;;0.40;99.90;;;;;;4977888;28;20226;-80
2023/03/10 04:01:18;;;;;;;25.00;16.40;;;0.40;99.90;;;;;;4973523;28;20250;-80
2023/03/10 04:03:49;;;;;;;23.97;17.17;;;0.40;99.90;;;;;;4964889;28;20879;-79
2023/03/10 04:06:17;;;;;;;26.97;16.73;;;0.40;99.90;;;;;;4979010;28;20360;-80
2023/03/10 04:08:44;;;;;;;25.77;16.80;;;0.40;99.90;;;;;;4982053;28;20294;-78
2023/03/10 04:11:13;;;;;;;25.83;17.17;;;0.40;99.90;;;;;;4985872;28;20261;-80
2023/03/10 04:13:43;;;;;;;25.13;17.23;;;0.40;99.90;;;;;;4966272;28;20223;-79
2023/03/10 04:16:11;;;;;;;24.83;16.83;;;0.30;99.90;;;;;;4983129;28;20233;-79
2023/03/10 04:18:40;;;;;;;25.23;16.57;;;0.30;99.90;;;;;;4965793;28;20235;-79
2023/03/10 04:21:07;;;;;;;23.73;17.40;;;0.30;99.90;;;;;;4981822;28;20228;-79
2023/03/10 04:23:34;;;;;;;24.23;16.17;;;0.30;99.90;;;;;;4964646;28;20218;-81
2023/03/10 04:26:01;;;;;;;26.77;17.90;;;0.30;99.90;;;;;;4966633;28;20236;-80
2023/03/10 04:28:31;;;;;;;26.50;16.93;;;0.20;99.90;;;;;;4984869;28;20297;-79
2023/03/10 04:33:28;;;;;;;31.23;18.17;;;0.20;99.90;;;;;;4937301;28;20926;-77
2023/03/10 04:35:55;;;;;;;26.57;18.37;;;0.20;99.90;;;;;;4933628;28;20660;-76
2023/03/10 04:38:23;;;;;;;26.70;18.43;;;0.20;99.90;;;;;;4909704;28;20229;-75
2023/03/10 04:40:55;;;;;;;37.00;19.33;;;0.10;99.90;;;;;;4937815;28;20253;-76
2023/03/10 04:43:25;;;;;;;29.33;18.83;;;0.10;99.90;;;;;;4934059;28;20235;-76
2023/03/10 04:45:53;;;;;;;30.87;18.67;;;0.10;99.90;;;;;;4927955;28;20266;-76
2023/03/10 04:48:20;;;;;;;32.87;19.47;;;0.00;99.90;;;;;;4925449;28;20219;-76
2023/03/10 04:50:55;;;;;;;29.90;18.87;;;0.00;99.90;;;;;;4929618;28;20227;-75
2023/03/10 04:53:21;;;;;;;34.97;19.57;;;0.00;99.90;;;;;;4926357;28;20223;-75
2023/03/10 04:55:50;;;;;;;37.10;20.40;;;0.00;99.90;;;;;;4931500;28;20222;-75
2023/03/10 04:58:18;;;;;;;41.83;19.47;;;0.00;99.90;;;;;;4947298;28;20213;-75
2023/03/10 05:00:45;;;;;;;94.77;22.30;;;0.00;99.90;;;;;;4929579;29;20228;-75
2023/03/10 05:03:13;;;;;;;27.33;18.27;;;0.00;99.90;;;;;;4924892;28;20312;-75
2023/03/10 05:05:40;;;;;;;44.17;19.23;;;0.00;99.90;;;;;;4934013;28;20232;-77
2023/03/10 05:08:07;;;;;;;57.17;19.87;;;0.00;99.90;;;;;;4926420;28;20230;-76
2023/03/10 05:10:35;;;;;;;27.20;17.90;;;0.00;99.90;;;;;;4949552;28;20222;-76
2023/03/10 05:13:01;;;;;;;26.83;18.00;;;0.00;99.90;;;;;;4932129;28;20299;-76
2023/03/10 05:15:29;;;;;;;26.20;17.17;;;0.00;99.90;;;;;;4918914;29;20232;-75
2023/03/10 05:17:56;;;;;;;26.07;17.60;;;0.00;99.90;;;;;;4959927;28;20230;-74
2023/03/10 05:20:24;;;;;;;26.63;17.50;;;-0.10;99.90;;;;;;4933536;28;20275;-75
2023/03/10 05:22:51;;;;;;;33.83;17.77;;;0.00;99.90;;;;;;4956210;28;20287;-80
2023/03/10 05:25:19;;;;;;;24.30;15.67;;;-0.10;99.90;;;;;;4932686;28;20229;-79
2023/03/10 05:27:46;;;;;;;50.70;19.10;;;-0.10;99.90;;;;;;4937834;28;20231;-80
2023/03/10 05:30:14;;;;;;;27.37;18.23;;;0.00;99.90;;;;;;4934682;28;20607;-81
2023/03/10 05:32:44;;;;;;;28.53;17.67;;;-0.10;99.90;;;;;;4949064;28;20229;-80
2023/03/10 05:35:11;;;;;;;78.03;21.93;;;-0.10;99.90;;;;;;4936151;28;20456;-81
2023/03/10 05:37:42;;;;;;;76.27;21.30;;;-0.10;99.90;;;;;;4936311;28;20295;-83
2023/03/10 05:40:13;;;;;;;29.60;19.70;;;-0.10;99.90;;;;;;4956555;28;20225;-78
2023/03/10 05:42:40;;;;;;;49.67;19.60;;;-0.10;99.90;;;;;;4933494;28;20220;-78
2023/03/10 05:45:10;;;;;;;41.90;19.30;;;-0.10;99.90;;;;;;4959520;28;20254;-80
2023/03/10 05:47:37;;;;;;;149.67;26.17;;;-0.10;99.90;;;;;;4934618;28;20263;-79
2023/03/10 05:50:07;;;;;;;37.00;18.33;;;-0.10;99.90;;;;;;4942548;28;20308;-79
2023/03/10 05:52:37;;;;;;;29.97;18.67;;;-0.20;99.90;;;;;;4948972;28;20858;-80
2023/03/10 05:55:06;;;;;;;30.57;18.17;;;-0.20;99.90;;;;;;4957512;28;20248;-79
2023/03/10 05:57:33;;;;;;;46.60;19.13;;;-0.20;99.90;;;;;;4958936;28;20314;-80
2023/03/10 06:00:00;;;;;;;74.03;20.97;;;-0.20;99.90;;;;;;4950409;28;20548;-80
2023/03/10 06:02:27;;;;;;;35.37;19.73;;;-0.30;99.90;;;;;;4930668;29;20232;-80
2023/03/10 06:04:53;;;;;;;27.27;18.47;;;-0.30;99.90;;;;;;4931401;29;20788;-80
2023/03/10 06:07:20;;;;;;;35.70;18.87;;;-0.30;99.90;;;;;;4929549;29;20321;-79
2023/03/10 06:09:46;;;;;;;47.90;19.23;;;-0.20;99.90;;;;;;4929859;28;20235;-78
2023/03/10 06:12:14;;;;;;;66.77;19.90;;;-0.20;99.90;;;;;;4933394;28;20243;-79
2023/03/10 06:14:41;;;;;;;76.90;21.07;;;-0.20;99.90;;;;;;4932072;28;20226;-74
2023/03/10 06:17:08;;;;;;;27.37;17.47;;;-0.20;99.90;;;;;;4946665;28;20233;-76
2023/03/10 06:19:35;;;;;;;104.20;21.53;;;-0.20;99.90;;;;;;4949591;28;20227;-75
2023/03/10 06:22:02;;;;;;;27.37;17.37;;;-0.20;99.90;;;;;;4944395;28;20292;-75
2023/03/10 06:24:29;;;;;;;24.80;16.80;;;-0.20;99.90;;;;;;4940833;28;20223;-75
2023/03/10 06:26:56;;;;;;;26.50;16.53;;;-0.20;99.90;;;;;;4941780;28;20258;-75
2023/03/10 06:29:24;;;;;;;25.13;16.13;;;-0.10;99.90;;;;;;4940927;28;20954;-75
2023/03/10 06:31:51;;;;;;;77.33;19.47;;;-0.20;99.90;;;;;;4925062;28;20650;-75
2023/03/10 06:34:18;;;;;;;24.07;16.53;;;-0.10;99.90;;;;;;4940476;28;20910;-75
2023/03/10 06:36:45;;;;;;;38.63;17.13;;;-0.10;99.90;;;;;;4941975;28;20786;-75
2023/03/10 06:39:11;;;;;;;24.80;16.50;;;-0.20;99.90;;;;;;4943045;28;20615;-74
2023/03/10 06:41:38;;;;;;;25.13;16.53;;;-0.10;99.90;;;;;;4944240;28;20458;-75
2023/03/10 06:44:05;;;;;;;22.07;15.10;;;-0.10;99.90;;;;;;4946944;28;20235;-75
2023/03/10 06:46:33;;;;;;;36.73;16.23;;;-0.10;99.90;;;;;;4943436;28;20666;-75
2023/03/10 06:49:00;;;;;;;22.90;15.40;;;-0.10;99.90;;;;;;4956682;28;20238;-75
2023/03/10 06:51:26;;;;;;;23.00;15.77;;;-0.10;99.90;;;;;;4932841;28;20236;-74
2023/03/10 06:53:54;;;;;;;20.80;15.27;;;-0.10;99.90;;;;;;4926451;28;20227;-74
2023/03/10 06:56:21;;;;;;;24.27;16.60;;;0.00;99.90;;;;;;4943208;28;20224;-74
2023/03/10 06:58:48;;;;;;;20.87;14.67;;;0.00;99.90;;;;;;4940721;28;20223;-74
2023/03/10 07:01:23;;;;;;;22.47;14.60;;;0.00;99.90;;;;;;4913079;28;20241;-75
2023/03/10 07:03:51;;;;;;;22.93;14.40;;;0.00;99.90;;;;;;4930820;28;20306;-74
2023/03/10 07:06:18;;;;;;;25.37;15.37;;;-0.10;99.90;;;;;;4939565;28;20229;-74
2023/03/10 07:08:45;;;;;;;22.70;14.77;;;0.00;99.90;;;;;;4948322;28;20231;-75
2023/03/10 07:11:11;;;;;;;48.83;16.73;;;0.00;99.90;;;;;;4924052;28;20236;-74
2023/03/10 07:13:38;;;;;;;20.90;14.40;;;0.00;99.90;;;;;;4946383;28;20234;-75
2023/03/10 07:16:05;;;;;;;29.30;14.70;;;0.00;99.90;;;;;;4944585;28;20225;-74
2023/03/10 07:18:32;;;;;;;22.57;15.37;;;0.00;99.90;;;;;;4943423;28;20255;-75
2023/03/10 07:21:00;;;;;;;26.43;15.00;;;0.10;99.90;;;;;;4949769;28;20223;-75
2023/03/10 07:23:27;;;;;;;21.57;14.57;;;0.10;99.90;;;;;;4922283;28;20229;-74
2023/03/10 07:25:55;;;;;;;30.97;15.50;;;0.10;99.90;;;;;;4944650;28;20722;-74
2023/03/10 07:28:22;;;;;;;24.00;14.87;;;0.10;99.90;;;;;;4938995;28;20238;-74
2023/03/10 07:30:49;;;;;;;21.17;14.47;;;0.20;99.90;;;;;;4926802;28;20229;-74
2023/03/10 07:33:16;;;;;;;22.20;15.03;;;0.20;99.90;;;;;;4941087;28;20700;-74
2023/03/10 07:35:43;;;;;;;49.27;15.57;;;0.20;99.90;;;;;;4947677;28;20233;-74
2023/03/10 07:38:11;;;;;;;20.30;14.70;;;0.20;99.90;;;;;;4941498;28;20235;-74
2023/03/10 07:40:39;;;;;;;22.13;15.13;;;0.20;99.90;;;;;;4943329;28;20714;-75
2023/03/10 07:43:06;;;;;;;21.77;14.90;;;0.20;99.90;;;;;;4929930;28;20255;-74
2023/03/10 07:45:33;;;;;;;20.43;14.07;;;0.20;99.90;;;;;;4947000;28;20230;-75
2023/03/10 07:48:00;;;;;;;21.30;14.23;;;0.30;99.90;;;;;;4945305;28;20246;-74
2023/03/10 07:50:26;;;;;;;30.50;15.70;;;0.30;99.90;;;;;;4949940;28;20297;-74
2023/03/10 07:52:54;;;;;;;20.17;14.17;;;0.30;99.90;;;;;;4945448;28;20236;-75
2023/03/10 07:55:23;;;;;;;21.37;14.20;;;0.30;99.90;;;;;;4945182;28;20282;-75
2023/03/10 07:57:50;;;;;;;23.60;14.07;;;0.30;99.90;;;;;;4946139;28;20226;-75
2023/03/10 08:00:17;;;;;;;19.53;13.93;;;0.40;99.90;;;;;;4948984;28;20241;-76
2023/03/10 08:02:44;;;;;;;21.20;15.17;;;0.40;99.90;;;;;;4932419;28;20318;-76
2023/03/10 08:05:13;;;;;;;22.07;14.47;;;0.40;99.90;;;;;;4949322;28;20228;-75
2023/03/10 08:07:40;;;;;;;20.50;14.87;;;0.50;99.90;;;;;;4948187;28;20316;-76
2023/03/10 08:10:08;;;;;;;21.17;13.93;;;0.50;99.90;;;;;;4956250;28;20240;-76
2023/03/10 08:12:36;;;;;;;19.97;13.73;;;0.50;99.90;;;;;;4950464;28;20694;-75
2023/03/10 08:15:04;;;;;;;18.73;13.63;;;0.60;99.90;;;;;;4944365;28;20246;-75
2023/03/10 08:17:32;;;;;;;20.93;14.27;;;0.50;99.90;;;;;;4945813;28;20762;-75
2023/03/10 08:19:59;;;;;;;23.30;15.03;;;0.50;99.90;;;;;;4952202;28;20228;-76
2023/03/10 08:22:26;;;;;;;21.00;14.80;;;0.50;99.90;;;;;;4945606;28;20248;-76
2023/03/10 08:24:54;;;;;;;19.40;13.77;;;0.50;99.90;;;;;;4947545;28;20612;-76
2023/03/10 08:27:21;;;;;;;19.90;13.60;;;0.50;99.90;;;;;;4946045;28;20244;-76
2023/03/10 08:29:49;;;;;;;22.70;14.70;;;0.50;99.90;;;;;;4929823;28;20234;-76
2023/03/10 08:32:16;;;;;;;21.57;14.30;;;0.50;99.90;;;;;;4944901;28;20238;-76
2023/03/10 08:34:43;;;;;;;20.83;13.93;;;0.60;99.90;;;;;;4939722;28;20236;-76
2023/03/10 08:37:10;;;;;;;25.47;13.87;;;0.60;99.90;;;;;;4960675;28;21134;-76
2023/03/10 08:39:36;;;;;;;20.63;13.63;;;0.60;99.90;;;;;;4951262;28;20810;-77
2023/03/10 08:42:03;;;;;;;28.23;14.13;;;0.60;99.90;;;;;;4946399;28;20230;-76
2023/03/10 08:44:30;;;;;;;21.00;13.93;;;0.60;99.90;;;;;;4952311;28;20232;-76
2023/03/10 08:46:58;;;;;;;24.60;14.40;;;0.60;99.90;;;;;;4936716;28;20234;-76
2023/03/10 08:49:25;;;;;;;23.17;15.20;;;0.60;99.90;;;;;;4953354;28;20228;-77
2023/03/10 08:51:51;;;;;;;24.13;15.07;;;0.60;99.90;;;;;;4932142;28;20247;-76
2023/03/10 08:54:21;;;;;;;21.77;14.70;;;0.70;99.90;;;;;;4944161;28;20234;-76
2023/03/10 08:56:48;;;;;;;19.57;14.07;;;0.70;99.90;;;;;;4953255;28;20226;-77
2023/03/10 08:59:15;;;;;;;23.80;14.73;;;0.70;99.90;;;;;;4946861;28;20963;-77
2023/03/10 09:01:42;;;;;;;22.67;14.90;;;0.70;99.90;;;;;;4945411;28;20237;-77
2023/03/10 09:04:10;;;;;;;20.40;14.20;;;0.70;99.90;;;;;;4942503;28;20254;-78
2023/03/10 09:06:38;;;;;;;21.10;13.70;;;0.70;99.90;;;;;;4950984;28;20246;-78
2023/03/10 09:09:06;;;;;;;24.50;15.57;;;0.70;99.90;;;;;;4927219;28;20234;-78
2023/03/10 09:11:35;;;;;;;21.63;14.97;;;0.70;99.90;;;;;;4944263;28;20236;-78
2023/03/10 09:14:03;;;;;;;23.50;15.53;;;0.70;99.90;;;;;;4956662;28;20228;-77
2023/03/10 09:16:30;;;;;;;21.73;15.00;;;0.70;99.90;;;;;;4940332;28;20690;-77
2023/03/10 09:18:58;;;;;;;21.83;14.23;;;0.70;99.90;;;;;;4941694;28;20817;-77
2023/03/10 09:21:27;;;;;;;22.57;15.43;;;0.70;99.90;;;;;;4941512;28;20235;-76
2023/03/10 09:23:54;;;;;;;23.00;15.30;;;0.70;99.90;;;;;;4958632;28;20228;-77
2023/03/10 09:26:21;;;;;;;22.93;15.20;;;0.70;99.90;;;;;;4948273;28;20227;-77
2023/03/10 09:28:49;;;;;;;21.17;14.70;;;0.70;99.90;;;;;;4942015;28;20738;-77
2023/03/10 09:31:17;;;;;;;21.13;15.03;;;0.70;99.90;;;;;;4954478;28;20592;-77
2023/03/10 09:33:44;;;;;;;23.20;15.07;;;0.70;99.90;;;;;;4941420;28;20228;-77
2023/03/10 09:36:11;;;;;;;24.60;15.30;;;0.70;99.90;;;;;;4957664;28;20719;-76
2023/03/10 09:38:40;;;;;;;24.87;15.27;;;0.80;99.90;;;;;;4945423;28;20227;-77
2023/03/10 09:41:21;;;;;;;27.60;16.20;;;0.80;99.90;;;;;;4947232;28;20279;-77
2023/03/10 09:43:56;;;;;;;24.60;16.30;;;0.80;99.90;;;;;;4945605;28;20215;-77
2023/03/10 09:46:26;;;;;;;22.93;15.57;;;0.80;99.90;;;;;;4942424;28;20299;-77
2023/03/10 09:48:59;;;;;;;24.50;16.10;;;0.80;99.90;;;;;;4937516;28;20437;-77
2023/03/10 09:51:28;;;;;;;25.60;16.23;;;0.80;99.90;;;;;;4943870;28;20235;-77
2023/03/10 09:54:15;;;;;;;22.47;15.63;;;0.80;99.90;;;;;;4950959;28;20604;-76
2023/03/10 09:56:41;;;;;;;24.47;16.17;;;0.80;99.90;;;;;;4941231;28;20310;-77
2023/03/10 09:59:13;;;;;;;26.77;16.87;;;0.80;99.90;;;;;;4942652;28;20220;-77
2023/03/10 10:01:43;;;;;;;24.93;15.77;;;0.80;99.90;;;;;;4943023;28;20741;-78
2023/03/10 10:04:12;;;;;;;25.97;16.30;;;0.80;99.90;;;;;;4945114;28;20234;-78
2023/03/10 10:06:43;;;;;;;29.27;17.13;;;0.80;99.90;;;;;;4962562;28;20227;-78
2023/03/10 10:09:17;;;;;;;27.37;17.73;;;0.80;99.90;;;;;;4943019;28;20225;-77
2023/03/10 10:11:44;;;;;;;28.50;17.43;;;0.80;99.90;;;;;;4940718;28;20231;-77
2023/03/10 10:14:17;;;;;;;29.47;17.57;;;0.80;99.90;;;;;;4940469;28;20318;-79
2023/03/10 10:16:52;;;;;;;29.07;17.80;;;0.70;99.90;;;;;;4929391;28;20558;-77
2023/03/10 10:19:21;;;;;;;27.50;18.53;;;0.70;99.90;;;;;;4946575;28;20692;-77
2023/03/10 10:21:53;;;;;;;28.43;18.00;;;0.70;99.90;;;;;;4946141;28;20266;-77
2023/03/10 10:24:21;;;;;;;29.80;17.60;;;0.70;99.90;;;;;;4944501;28;20231;-77
2023/03/10 10:26:48;;;;;;;30.37;17.87;;;0.70;99.90;;;;;;4942798;28;20575;-77
2023/03/10 10:29:17;;;;;;;30.53;18.77;;;0.60;99.90;;;;;;4949569;28;20220;-77
2023/03/10 10:35:13;;;;;;;32.33;19.77;;;0.60;99.90;;;;;;4956755;28;20224;-94
2023/03/10 10:37:41;;;;;;;30.47;19.30;;;0.60;99.90;;;;;;4957573;29;20228;-94
2023/03/10 10:40:25;;;;;;;32.87;20.53;;;0.60;99.90;;;;;;4959508;28;20728;-94
2023/03/10 10:42:54;;;;;;;32.30;20.10;;;0.60;99.90;;;;;;4962998;28;20279;-96
2023/03/10 10:45:27;;;;;;;34.83;20.67;;;0.60;99.90;;;;;;4959878;28;20220;-96
2023/03/10 10:47:54;;;;;;;34.13;20.93;;;0.60;99.90;;;;;;4963563;28;20221;-96
2023/03/10 10:53:23;;;;;;;35.53;21.53;;;0.60;99.90;;;;;;4971606;28;20302;-94
2023/03/10 10:56:03;;;;;;;33.17;20.43;;;0.70;99.90;;;;;;4972068;28;20263;-95
2023/03/10 10:58:32;;;;;;;36.70;22.97;;;0.60;99.90;;;;;;4961845;28;20983;-95
2023/03/10 11:01:01;;;;;;;39.40;21.93;;;0.60;99.90;;;;;;4962240;29;20292;-95
2023/03/10 11:03:32;;;;;;;38.37;22.77;;;0.60;99.90;;;;;;4969893;28;20226;-95
2023/03/10 11:05:59;;;;;;;39.63;23.20;;;0.70;99.90;;;;;;4958712;28;20293;-96
2023/03/10 11:08:33;;;;;;;34.43;20.97;;;0.70;99.90;;;;;;4962135;28;20212;-96
2023/03/10 11:11:11;;;;;;;33.97;21.20;;;0.70;99.90;;;;;;4958319;28;20231;-96
2023/03/10 11:13:46;;;;;;;32.67;21.27;;;0.80;99.90;;;;;;4961507;29;20209;-95
2023/03/10 11:16:20;;;;;;;37.40;24.50;;;0.80;99.90;;;;;;4959607;28;20318;-96
2023/03/10 11:18:54;;;;;;;33.20;20.80;;;0.90;99.90;;;;;;4959365;28;20231;-95
2023/03/10 11:21:26;;;;;;;34.60;22.00;;;0.70;99.90;;;;;;4972981;28;20239;-96
2023/03/10 11:24:03;;;;;;;31.40;20.27;;;0.80;99.90;;;;;;4958811;28;20258;-94
2023/03/10 11:26:43;;;;;;;34.03;21.87;;;0.90;99.90;;;;;;4971058;28;20268;-95
2023/03/10 11:29:22;;;;;;;33.77;19.60;;;0.90;99.90;;;;;;4964562;28;20229;-94
2023/03/10 11:31:56;;;;;;;31.63;20.63;;;0.90;99.90;;;;;;4970876;28;20208;-95
2023/03/10 11:34:29;;;;;;;30.47;20.40;;;0.90;99.90;;;;;;4977416;28;22072;-95
2023/03/10 11:37:04;;;;;;;34.43;21.40;;;0.90;99.90;;;;;;4979320;28;20290;-94
2023/03/10 11:39:42;;;;;;;32.23;21.50;;;0.90;99.90;;;;;;4961879;28;20273;-96
2023/03/10 11:42:18;;;;;;;31.03;19.83;;;0.90;99.90;;;;;;4981943;28;20229;-96
2023/03/10 11:44:53;;;;;;;48.13;22.13;;;0.90;99.90;;;;;;4964279;28;20288;-95
2023/03/10 11:47:25;;;;;;;34.23;21.30;;;1.00;99.90;;;;;;4950887;28;20223;-93
2023/03/10 11:50:01;;;;;;;31.53;21.87;;;1.00;99.90;;;;;;4952385;28;20223;-94
2023/03/10 11:52:30;;;;;;;33.30;21.03;;;1.00;99.90;;;;;;4949936;28;20248;-94
2023/03/10 11:55:04;;;;;;;34.20;21.87;;;1.10;99.90;;;;;;4952336;28;20216;-94
2023/03/10 11:57:39;;;;;;;35.10;22.00;;;1.10;99.90;;;;;;4968373;28;20284;-96
2023/03/10 12:00:18;;;;;;;36.00;20.40;;;1.10;99.90;;;;;;4965644;28;20304;-95
2023/03/10 12:02:58;;;;;;;48.97;21.63;;;1.10;99.90;;;;;;4961480;28;20232;-96
2023/03/10 12:05:25;;;;;;;31.20;19.67;;;1.20;99.90;;;;;;4965352;28;20252;-95
2023/03/10 12:08:00;;;;;;;32.83;20.80;;;1.10;99.90;;;;;;4962349;28;20236;-95
2023/03/10 12:10:28;;;;;;;31.00;20.03;;;1.10;99.90;;;;;;4960525;28;20277;-96
2023/03/10 12:12:57;;;;;;;44.97;21.03;;;1.00;99.90;;;;;;4966460;28;20229;-96
2023/03/10 12:15:27;;;;;;;53.13;21.57;;;1.10;99.90;;;;;;4966738;28;20234;-96
2023/03/10 12:17:55;;;;;;;30.23;20.57;;;1.00;99.90;;;;;;4965282;28;20221;-95
2023/03/10 12:20:29;;;;;;;33.30;20.67;;;1.00;99.90;;;;;;4959218;28;20309;-96
2023/03/10 12:22:58;;;;;;;34.77;21.37;;;1.00;99.90;;;;;;4965661;28;20214;-95
2023/03/10 12:25:45;;;;;;;31.13;20.63;;;1.00;99.90;;;;;;4967215;28;20257;-94
2023/03/10 12:28:28;;;;;;;33.70;20.77;;;1.00;99.90;;;;;;4963463;28;20239;-93
2023/03/10 12:30:58;;;;;;;43.57;19.93;;;1.10;99.90;;;;;;4951332;28;20295;-94
2023/03/10 12:33:43;;;;;;;31.73;20.83;;;1.10;99.90;;;;;;4960647;28;20266;-93
2023/03/10 12:36:13;;;;;;;30.60;19.67;;;1.10;99.90;;;;;;4960325;28;20240;-94
2023/03/10 12:38:46;;;;;;;30.07;19.90;;;1.20;99.90;;;;;;4959603;28;20227;-93
2023/03/10 12:41:14;;;;;;;28.20;19.07;;;1.20;99.90;;;;;;4957545;28;20519;-94
2023/03/10 12:44:25;;;;;;;28.60;19.40;;;1.20;99.90;;;;;;4957599;28;20219;-95
2023/03/10 12:46:59;;;;;;;26.33;17.67;;;1.20;99.90;;;;;;4970980;28;20231;-96
2023/03/10 12:49:32;;;;;;;29.00;19.60;;;1.20;99.90;;;;;;4971599;28;20218;-96
2023/03/10 12:55:02;;;;;;;27.83;18.27;;;1.10;99.90;;;;;;4973801;28;20642;-82
2023/03/10 12:57:36;;;;;;;27.60;17.70;;;1.10;99.90;;;;;;4985865;28;20311;-81